Time;durP1;ratioP1;P1;durP2;ratioP2;P2;SDS_P1;SDS_P2;PMS_P1;PMS_P2;Temp;Humidity;BMP_temperature;BMP_pressure;BME280_temperature;BME280_humidity;BME280_pressure;Samples;Min_cycle;Max_cycle;Signal;HPM_P1;HPM_P2
2023/02/04 00:00:14;;;;;;;39.50;24.10;;;;;;;5.11;58.80;101435.14;107065;1268;23131;-49
2023/02/04 00:02:41;;;;;;;35.70;20.20;;;;;;;5.03;58.76;101436.61;106772;1273;23867;-50
2023/02/04 00:05:09;;;;;;;34.50;21.20;;;;;;;4.98;58.99;101434.65;106968;1269;25329;-50
2023/02/04 00:07:36;;;;;;;37.20;21.40;;;;;;;4.95;59.16;101432.55;107076;1268;25323;-50
2023/02/04 00:10:05;;;;;;;32.90;19.90;;;;;;;4.93;59.25;101433.56;106773;1274;25346;-50
2023/02/04 00:12:33;;;;;;;30.10;18.10;;;;;;;4.91;59.35;101430.09;107004;1270;22632;-50
2023/02/04 00:15:00;;;;;;;29.00;17.00;;;;;;;4.89;59.02;101432.48;107003;1272;22524;-51
2023/02/04 00:17:28;;;;;;;33.90;19.30;;;;;;;4.86;58.89;101431.23;106673;1271;25329;-50
2023/02/04 00:19:55;;;;;;;32.30;19.20;;;;;;;4.84;59.07;101432.40;105646;1271;1003478;-50
2023/02/04 00:22:23;;;;;;;31.50;19.10;;;;;;;4.82;59.31;101429.13;106741;1268;25347;-51
2023/02/04 00:24:49;;;;;;;24.70;15.20;;;;;;;4.82;59.53;101424.15;105897;1269;1003617;-51
2023/02/04 00:27:17;;;;;;;21.10;14.20;;;;;;;4.82;59.67;101419.15;106584;1272;25329;-50
2023/02/04 00:29:44;;;;;;;22.20;14.70;;;;;;;4.81;59.56;101409.19;106151;1268;1003743;-51
2023/02/04 00:32:12;;;;;;;22.70;15.70;;;;;;;4.81;59.51;101408.31;107035;1271;25384;-50
2023/02/04 00:34:40;;;;;;;29.30;19.30;;;;;;;4.81;59.74;101402.13;106786;1272;24236;-50
2023/02/04 00:37:07;;;;;;;26.70;17.10;;;;;;;4.83;59.78;101395.96;106787;1274;25420;-50
2023/02/04 00:39:35;;;;;;;28.70;16.30;;;;;;;4.84;59.70;101393.58;106833;1267;25379;-50
2023/02/04 00:42:04;;;;;;;25.00;16.20;;;;;;;4.85;59.56;101388.42;106312;1267;1003648;-50
2023/02/04 00:44:31;;;;;;;26.80;18.10;;;;;;;4.85;59.45;101385.34;107030;1267;25322;-52
2023/02/04 00:46:58;;;;;;;31.70;20.30;;;;;;;4.84;59.53;101381.19;107095;1270;25341;-50
2023/02/04 00:49:25;;;;;;;26.70;18.20;;;;;;;4.82;59.68;101385.63;107091;1266;25379;-51
2023/02/04 00:51:53;;;;;;;23.30;15.20;;;;;;;4.81;59.86;101379.79;106503;1266;1003371;-52
2023/02/04 00:54:20;;;;;;;32.10;21.90;;;;;;;4.82;59.78;101379.11;107046;1267;25398;-50
2023/02/04 00:56:47;;;;;;;31.30;20.20;;;;;;;4.83;59.90;101372.25;107039;1266;25359;-52
2023/02/04 00:59:15;;;;;;;26.30;17.50;;;;;;;4.83;59.98;101364.69;106049;1268;1002736;-50
2023/02/04 01:01:42;;;;;;;27.30;18.90;;;;;;;4.83;60.17;101358.33;105725;1274;1002841;-51
2023/02/04 01:04:10;;;;;;;25.10;17.40;;;;;;;4.83;60.30;101356.27;106912;1266;25423;-50
2023/02/04 01:06:37;;;;;;;26.60;17.50;;;;;;;4.83;60.32;101358.84;106836;1266;25356;-51
2023/02/04 01:09:05;;;;;;;24.80;15.80;;;;;;;4.84;60.38;101358.34;106671;1268;25433;-50
2023/02/04 01:11:32;;;;;;;20.90;13.10;;;;;;;4.86;60.21;101355.95;106976;1267;25351;-50
2023/02/04 01:13:59;;;;;;;18.60;13.00;;;;;;;4.88;60.11;101349.95;106906;1269;24338;-50
2023/02/04 01:16:26;;;;;;;14.40;9.70;;;;;;;4.88;60.02;101349.77;107138;1266;25334;-50
2023/02/04 01:18:54;;;;;;;12.60;9.60;;;;;;;4.86;59.90;101347.01;106866;1270;25328;-50
2023/02/04 01:21:22;;;;;;;11.00;8.10;;;;;;;4.84;60.01;101341.66;106866;1267;25428;-51
2023/02/04 01:23:50;;;;;;;8.00;5.50;;;;;;;4.82;60.01;101341.80;107094;1266;25667;-50
2023/02/04 01:26:18;;;;;;;6.00;4.80;;;;;;;4.82;60.34;101343.35;107176;1266;23182;-51
2023/02/04 01:28:45;;;;;;;6.50;4.90;;;;;;;4.83;60.63;101338.20;107082;1270;25325;-50
2023/02/04 01:31:12;;;;;;;10.40;8.30;;;;;;;4.86;60.90;101338.08;106143;1267;1003774;-51
2023/02/04 01:33:40;;;;;;;4.80;3.90;;;;;;;4.87;60.72;101328.98;107145;1267;23809;-51
2023/02/04 01:36:08;;;;;;;6.50;5.00;;;;;;;4.88;60.97;101326.23;107115;1269;25343;-51
2023/02/04 01:38:35;;;;;;;5.10;4.50;;;;;;;4.92;60.90;101324.23;106879;1272;22517;-51
2023/02/04 01:41:04;;;;;;;4.60;3.70;;;;;;;4.96;61.10;101325.63;106165;1269;1003365;-50
2023/02/04 01:43:32;;;;;;;5.20;4.10;;;;;;;5.01;61.19;101320.17;107125;1267;22563;-50
2023/02/04 01:46:01;;;;;;;4.00;3.10;;;;;;;5.05;61.16;101314.54;107152;1268;25374;-50
2023/02/04 01:48:29;;;;;;;5.20;4.00;;;;;;;5.10;61.23;101310.27;107067;1267;24075;-50
2023/02/04 01:51:10;;;;;;;5.50;4.10;;;;;;;5.13;61.04;101304.29;106841;1260;25399;-50
2023/02/04 01:53:37;;;;;;;4.80;3.70;;;;;;;5.14;60.94;101303.27;106949;1268;25377;-50
2023/02/04 01:56:19;;;;;;;3.20;2.90;;;;;;;5.16;60.89;101298.48;107036;1267;25484;-50
2023/02/04 01:58:46;;;;;;;2.60;2.40;;;;;;;5.19;61.01;101297.29;106761;1267;25406;-50
2023/02/04 02:01:32;;;;;;;5.60;3.00;;;;;;;5.23;61.08;101298.88;105997;1274;1003157;-52
2023/02/04 02:04:00;;;;;;;3.20;2.70;;;;;;;5.28;61.04;101301.48;107189;1267;23288;-50
2023/02/04 02:06:27;;;;;;;2.90;2.60;;;;;;;5.31;60.82;101301.69;106081;1268;1003530;-50
2023/02/04 02:08:57;;;;;;;4.60;3.00;;;;;;;5.30;60.57;101301.02;106456;1269;1003330;-50
2023/02/04 02:11:25;;;;;;;3.60;3.20;;;;;;;5.31;60.64;101301.52;106218;1267;1003224;-49
2023/02/04 02:13:55;;;;;;;4.40;3.70;;;;;;;5.32;60.73;101296.89;107046;1267;26484;-51
2023/02/04 02:16:22;;;;;;;3.50;3.00;;;;;;;5.34;60.69;101291.75;107013;1267;25506;-50
2023/02/04 02:18:53;;;;;;;4.10;3.00;;;;;;;5.37;60.63;101286.79;107051;1268;25353;-50
2023/02/04 02:21:29;;;;;;;3.10;2.50;;;;;;;5.42;60.53;101285.63;106903;1267;25451;-50
2023/02/04 02:23:56;;;;;;;2.50;2.30;;;;;;;5.45;60.32;101286.51;106851;1267;25482;-52
2023/02/04 02:26:24;;;;;;;3.40;3.10;;;;;;;5.45;60.15;101278.59;106893;1267;25345;-52
2023/02/04 02:28:51;;;;;;;2.70;2.50;;;;;;;5.44;60.12;101277.38;107025;1266;25390;-50
2023/02/04 02:31:19;;;;;;;2.70;2.30;;;;;;;5.45;60.24;101273.94;107035;1267;23298;-53
2023/02/04 02:33:47;;;;;;;3.10;2.10;;;;;;;5.46;60.43;101272.05;107090;1269;22646;-51
2023/02/04 02:36:16;;;;;;;3.00;2.40;;;;;;;5.49;60.57;101274.31;107061;1270;25464;-51
2023/02/04 02:38:43;;;;;;;2.30;2.10;;;;;;;5.54;60.58;101268.33;106876;1267;25396;-51
2023/02/04 02:41:10;;;;;;;3.50;2.10;;;;;;;5.57;60.71;101264.38;106893;1269;25403;-51
2023/02/04 02:43:37;;;;;;;3.30;2.50;;;;;;;5.60;60.57;101261.98;107122;1269;25357;-51
2023/02/04 02:46:06;;;;;;;2.60;2.20;;;;;;;5.64;60.66;101263.40;106943;1273;26717;-50
2023/02/04 02:48:33;;;;;;;2.40;2.00;;;;;;;5.69;60.82;101265.15;106508;1274;22526;-50
2023/02/04 02:51:00;;;;;;;2.60;2.10;;;;;;;5.75;60.72;101265.35;106885;1267;22520;-50
2023/02/04 02:53:27;;;;;;;4.00;2.40;;;;;;;5.79;60.64;101263.14;106812;1267;26554;-50
2023/02/04 02:55:54;;;;;;;2.70;2.30;;;;;;;5.83;60.66;101261.46;106604;1267;23879;-51
2023/02/04 02:58:25;;;;;;;4.10;2.20;;;;;;;5.85;60.65;101259.09;106583;1273;24495;-50
2023/02/04 03:00:52;;;;;;;3.80;2.40;;;;;;;5.88;60.49;101258.24;106835;1267;24377;-50
2023/02/04 03:03:23;;;;;;;2.90;2.20;;;;;;;5.89;60.36;101248.27;106843;1267;23883;-50
2023/02/04 03:05:53;;;;;;;3.30;1.90;;;;;;;5.93;60.42;101246.20;106725;1269;22526;-50
2023/02/04 03:08:20;;;;;;;2.00;1.90;;;;;;;5.96;60.30;101246.58;105988;1268;1003838;-51
2023/02/04 03:10:47;;;;;;;2.10;1.90;;;;;;;6.01;60.09;101244.17;106651;1268;25494;-50
2023/02/04 03:13:15;;;;;;;2.40;2.20;;;;;;;6.05;59.87;101241.80;105928;1272;1003649;-51
2023/02/04 03:15:42;;;;;;;3.40;2.20;;;;;;;6.07;59.72;101241.11;107162;1266;24249;-50
2023/02/04 03:18:12;;;;;;;2.50;2.20;;;;;;;6.08;59.83;101240.26;106458;1273;25536;-50
2023/02/04 03:20:40;;;;;;;2.00;1.80;;;;;;;6.09;59.90;101239.05;106322;1266;25497;-50
2023/02/04 03:23:07;;;;;;;2.50;2.30;;;;;;;6.10;60.05;101234.57;106575;1277;25304;-50
2023/02/04 03:25:34;;;;;;;3.30;2.60;;;;;;;6.13;60.05;101230.96;106644;1275;25328;-50
2023/02/04 03:28:02;;;;;;;3.00;2.10;;;;;;;6.16;59.98;101229.42;106720;1273;25360;-51
2023/02/04 03:30:29;;;;;;;3.60;2.70;;;;;;;6.19;60.00;101225.65;105638;1278;1003689;-50
2023/02/04 03:32:58;;;;;;;3.00;2.40;;;;;;;6.21;59.78;101222.39;106698;1273;25366;-49
2023/02/04 03:35:25;;;;;;;3.00;2.60;;;;;;;6.21;59.75;101219.46;106670;1274;23895;-50
2023/02/04 03:37:52;;;;;;;4.20;2.70;;;;;;;6.22;59.66;101216.88;106769;1276;24221;-50
2023/02/04 03:40:20;;;;;;;2.90;2.30;;;;;;;6.24;59.63;101214.66;106733;1275;25350;-51
2023/02/04 03:42:47;;;;;;;3.30;2.60;;;;;;;6.27;59.74;101217.08;106433;1276;25395;-50
2023/02/04 03:45:14;;;;;;;3.20;2.90;;;;;;;6.31;59.58;101213.80;106727;1273;25396;-50
2023/02/04 03:47:42;;;;;;;2.70;2.30;;;;;;;6.32;59.58;101212.09;106621;1277;25350;-49
2023/02/04 03:50:12;;;;;;;5.00;2.70;;;;;;;6.32;59.52;101215.90;107088;1267;25366;-50
2023/02/04 03:52:39;;;;;;;2.60;2.30;;;;;;;6.31;59.29;101214.14;107236;1266;25322;-50
2023/02/04 03:55:06;;;;;;;2.50;2.30;;;;;;;6.31;59.11;101213.11;106363;1269;1003656;-50
2023/02/04 03:57:33;;;;;;;3.50;2.80;;;;;;;6.32;58.91;101212.79;106842;1269;25360;-50
2023/02/04 04:00:01;;;;;;;2.90;2.30;;;;;;;6.34;58.86;101207.95;106707;1267;25414;-50
2023/02/04 04:02:39;;;;;;;2.80;2.60;;;;;;;6.37;59.04;101207.61;106552;1274;22792;-49
2023/02/04 04:05:07;;;;;;;2.90;2.60;;;;;;;6.38;59.07;101207.63;106446;1272;24360;-52
2023/02/04 04:07:34;;;;;;;5.60;2.80;;;;;;;6.39;59.01;101207.45;106073;1268;1003607;-51
2023/02/04 04:10:01;;;;;;;4.30;3.00;;;;;;;6.39;58.93;101202.63;106470;1273;25343;-50
2023/02/04 04:12:29;;;;;;;2.70;2.50;;;;;;;6.39;58.99;101202.96;107035;1267;25500;-49
2023/02/04 04:14:57;;;;;;;4.50;3.10;;;;;;;6.39;59.07;101197.81;106889;1267;25316;-50
2023/02/04 04:17:24;;;;;;;4.60;3.00;;;;;;;6.42;59.29;101195.73;107036;1272;25476;-49
2023/02/04 04:19:52;;;;;;;6.40;3.70;;;;;;;6.44;59.25;101192.47;106326;1268;1003152;-49
2023/02/04 04:22:20;;;;;;;3.70;3.10;;;;;;;6.47;59.09;101186.45;107015;1268;25362;-50
2023/02/04 04:24:46;;;;;;;6.80;3.50;;;;;;;6.48;58.97;101189.73;107098;1268;22553;-49
2023/02/04 04:27:14;;;;;;;3.90;3.20;;;;;;;6.48;59.01;101187.31;106843;1267;25592;-50
2023/02/04 04:29:41;;;;;;;4.20;3.80;;;;;;;6.49;59.25;101183.34;107090;1274;25343;-50
2023/02/04 04:32:09;;;;;;;3.80;3.40;;;;;;;6.50;59.10;101177.31;107065;1267;25854;-50
2023/02/04 04:34:37;;;;;;;4.50;3.00;;;;;;;6.52;59.21;101176.27;107103;1259;25791;-50
2023/02/04 04:37:04;;;;;;;4.00;3.50;;;;;;;6.53;59.60;101174.91;107200;1267;26656;-50
2023/02/04 04:39:31;;;;;;;3.90;3.50;;;;;;;6.55;59.65;101173.70;106342;1268;1003539;-50
2023/02/04 04:41:58;;;;;;;4.40;3.40;;;;;;;6.56;59.70;101169.22;106479;1269;25592;-49
2023/02/04 04:44:25;;;;;;;3.70;2.90;;;;;;;6.57;59.63;101166.98;107230;1269;25499;-49
2023/02/04 04:46:52;;;;;;;3.90;3.40;;;;;;;6.58;59.86;101166.98;107093;1272;25328;-50
2023/02/04 04:49:20;;;;;;;3.40;3.10;;;;;;;6.58;59.96;101169.73;106338;1268;1003676;-49
2023/02/04 04:51:48;;;;;;;3.70;3.00;;;;;;;6.58;59.91;101172.50;107095;1267;25328;-50
2023/02/04 04:54:15;;;;;;;5.30;2.80;;;;;;;6.61;59.99;101177.84;106923;1269;25425;-50
2023/02/04 04:56:42;;;;;;;2.80;2.50;;;;;;;6.62;60.23;101178.35;106719;1271;25424;-50
2023/02/04 04:59:09;;;;;;;2.70;2.40;;;;;;;6.63;60.28;101178.52;106847;1268;25415;-50
2023/02/04 05:01:36;;;;;;;3.30;2.40;;;;;;;6.63;60.37;101181.81;106031;1269;1003087;-50
2023/02/04 05:04:04;;;;;;;2.50;2.10;;;;;;;6.64;60.37;101181.98;106925;1267;25391;-50
2023/02/04 05:06:32;;;;;;;3.30;2.10;;;;;;;6.65;60.33;101181.14;107062;1268;25473;-50
2023/02/04 05:08:59;;;;;;;3.50;2.30;;;;;;;6.68;60.41;101182.34;106860;1265;25549;-49
2023/02/04 05:11:26;;;;;;;2.70;2.10;;;;;;;6.71;60.30;101186.98;107113;1267;24241;-49
2023/02/04 05:13:54;;;;;;;2.60;2.40;;;;;;;6.73;60.48;101184.92;106309;1267;1003487;-49
2023/02/04 05:16:21;;;;;;;4.60;2.60;;;;;;;6.74;60.38;101182.36;106992;1269;22636;-49
2023/02/04 05:18:48;;;;;;;3.40;2.30;;;;;;;6.74;60.27;101180.27;106903;1271;25354;-49
2023/02/04 05:21:15;;;;;;;2.70;2.40;;;;;;;6.75;60.24;101187.34;106120;1267;1003574;-49
2023/02/04 05:23:42;;;;;;;3.10;2.30;;;;;;;6.78;60.22;101188.20;107096;1268;22639;-49
2023/02/04 05:26:09;;;;;;;5.10;2.80;;;;;;;6.81;60.02;101189.59;107101;1267;26496;-50
2023/02/04 05:28:40;;;;;;;2.90;2.60;;;;;;;6.83;60.08;101188.55;106456;1253;1003682;-49
2023/02/04 05:31:07;;;;;;;3.90;2.50;;;;;;;6.85;59.94;101189.77;107038;1269;25364;-49
2023/02/04 05:33:34;;;;;;;4.00;2.90;;;;;;;6.86;59.84;101188.38;107065;1269;25315;-50
2023/02/04 05:36:03;;;;;;;4.10;2.80;;;;;;;6.85;59.98;101188.89;107163;1256;25302;-51
2023/02/04 05:38:31;;;;;;;3.10;2.80;;;;;;;6.86;60.01;101190.45;107072;1268;25399;-50
2023/02/04 05:40:58;;;;;;;2.70;2.30;;;;;;;6.87;60.00;101186.48;106859;1271;25476;-51
2023/02/04 05:43:25;;;;;;;3.80;2.70;;;;;;;6.90;59.95;101184.41;106361;1268;1002941;-50
2023/02/04 05:45:52;;;;;;;9.50;2.80;;;;;;;6.92;60.01;101184.76;106839;1269;24240;-50
2023/02/04 05:48:19;;;;;;;5.00;2.90;;;;;;;6.94;59.93;101181.31;106299;1267;1003588;-51
2023/02/04 05:50:46;;;;;;;4.60;2.70;;;;;;;6.95;59.87;101180.10;107116;1267;25399;-50
2023/02/04 05:53:14;;;;;;;3.60;2.70;;;;;;;6.95;60.01;101185.27;106319;1267;1002924;-53
2023/02/04 05:55:41;;;;;;;2.50;2.30;;;;;;;6.96;59.92;101182.86;107060;1267;22516;-51
2023/02/04 05:58:07;;;;;;;3.50;2.30;;;;;;;6.98;59.74;101179.06;106843;1272;25475;-50
2023/02/04 06:00:35;;;;;;;3.00;2.50;;;;;;;6.99;59.65;101176.13;107116;1268;26541;-50
2023/02/04 06:03:02;;;;;;;4.00;2.50;;;;;;;7.00;59.68;101176.48;106375;1268;1002934;-51
2023/02/04 06:05:31;;;;;;;3.40;2.50;;;;;;;7.01;59.54;101175.96;107140;1267;25353;-50
2023/02/04 06:07:58;;;;;;;4.20;2.50;;;;;;;6.99;59.51;101178.71;107109;1268;22631;-49
2023/02/04 06:10:25;;;;;;;4.00;2.40;;;;;;;6.98;59.69;101184.94;106710;1267;25331;-50
2023/02/04 06:12:53;;;;;;;3.00;2.50;;;;;;;6.95;59.83;101185.44;107027;1268;25467;-52
2023/02/04 06:15:20;;;;;;;4.80;2.40;;;;;;;6.95;60.07;101184.75;105981;1267;1003141;-50
2023/02/04 06:17:47;;;;;;;3.50;2.40;;;;;;;6.96;59.91;101178.89;106981;1269;25428;-50
2023/02/04 06:20:14;;;;;;;2.70;2.50;;;;;;;6.98;59.63;101182.69;106444;1268;1003905;-50
2023/02/04 06:22:41;;;;;;;4.10;3.00;;;;;;;6.99;59.63;101181.30;107210;1267;25354;-50
2023/02/04 06:25:11;;;;;;;3.10;2.80;;;;;;;6.99;59.59;101186.82;107054;1267;26487;-50
2023/02/04 06:27:38;;;;;;;4.50;2.90;;;;;;;7.00;59.59;101186.48;107115;1269;25506;-49
2023/02/04 06:30:07;;;;;;;2.40;2.20;;;;;;;7.02;59.81;101184.74;107075;1268;25354;-49
2023/02/04 06:32:34;;;;;;;3.20;2.40;;;;;;;7.04;59.89;101186.65;107158;1272;22518;-49
2023/02/04 06:35:01;;;;;;;4.20;2.40;;;;;;;7.06;59.86;101183.20;107087;1269;22542;-49
2023/02/04 06:37:29;;;;;;;4.60;2.50;;;;;;;7.08;59.93;101186.13;107098;1267;25325;-50
2023/02/04 06:39:56;;;;;;;2.50;1.80;;;;;;;7.09;60.05;101183.55;106833;1268;25508;-49
2023/02/04 06:42:27;;;;;;;1.80;1.60;;;;;;;7.08;60.35;101186.66;106995;1269;25487;-49
2023/02/04 06:44:54;;;;;;;1.70;1.50;;;;;;;7.08;60.35;101185.27;106376;1267;25480;-50
2023/02/04 06:47:21;;;;;;;1.60;1.50;;;;;;;7.08;60.43;101188.38;105995;1268;1003637;-49
2023/02/04 06:49:48;;;;;;;1.90;1.40;;;;;;;7.08;60.63;101186.48;107069;1270;22769;-49
2023/02/04 06:52:15;;;;;;;1.70;1.40;;;;;;;7.08;60.79;101186.14;106805;1269;25393;-49
2023/02/04 06:54:42;;;;;;;2.50;1.80;;;;;;;7.10;61.10;101188.21;107078;1269;25443;-49
2023/02/04 06:57:10;;;;;;;2.40;1.90;;;;;;;7.12;61.29;101189.75;106900;1269;24326;-49
2023/02/04 06:59:39;;;;;;;2.70;2.10;;;;;;;7.13;61.22;101192.86;106024;1272;1002901;-49
2023/02/04 07:02:06;;;;;;;3.10;2.40;;;;;;;7.11;60.97;101187.17;106919;1268;25381;-49
2023/02/04 07:04:34;;;;;;;3.30;2.40;;;;;;;7.07;60.92;101190.09;106425;1269;1003447;-49
2023/02/04 07:07:01;;;;;;;2.70;2.40;;;;;;;7.06;61.05;101190.45;106382;1267;1002519;-49
2023/02/04 07:09:28;;;;;;;2.80;2.40;;;;;;;7.08;61.11;101192.00;107144;1267;23495;-49
2023/02/04 07:11:56;;;;;;;3.40;2.50;;;;;;;7.08;60.90;101190.27;107070;1267;25476;-50
2023/02/04 07:14:27;;;;;;;3.70;2.70;;;;;;;7.10;60.97;101193.04;107074;1272;25446;-51
2023/02/04 07:16:57;;;;;;;3.00;2.60;;;;;;;7.14;60.88;101193.73;107182;1267;25329;-51
2023/02/04 07:19:24;;;;;;;3.90;2.70;;;;;;;7.14;60.78;101191.31;107029;1268;25393;-51
2023/02/04 07:21:55;;;;;;;4.40;2.50;;;;;;;7.11;60.85;101188.54;106867;1271;22795;-51
2023/02/04 07:24:22;;;;;;;5.70;2.60;;;;;;;7.12;61.02;101188.55;107174;1268;25315;-51
2023/02/04 07:26:50;;;;;;;4.10;2.80;;;;;;;7.13;61.12;101186.14;107082;1270;25442;-51
2023/02/04 07:29:18;;;;;;;3.00;2.50;;;;;;;7.12;61.24;101182.16;106727;1273;26493;-52
2023/02/04 07:31:52;;;;;;;5.00;2.70;;;;;;;7.13;61.13;101178.54;106353;1267;1003750;-51
2023/02/04 07:34:20;;;;;;;4.70;3.10;;;;;;;7.14;61.21;101182.16;107060;1272;23563;-51
2023/02/04 07:36:47;;;;;;;7.90;3.60;;;;;;;7.15;61.59;101182.85;106809;1269;22538;-50
2023/02/04 07:39:14;;;;;;;4.40;2.70;;;;;;;7.16;61.63;101179.92;106807;1269;25490;-51
2023/02/04 07:41:42;;;;;;;6.10;3.10;;;;;;;7.18;61.72;101180.60;107208;1269;25495;-51
2023/02/04 07:44:11;;;;;;;3.90;3.00;;;;;;;7.20;61.82;101181.30;106785;1275;25386;-50
2023/02/04 07:46:38;;;;;;;5.30;3.50;;;;;;;7.21;61.54;101179.73;107028;1272;22630;-50
2023/02/04 07:49:05;;;;;;;3.70;3.10;;;;;;;7.21;61.54;101181.80;107074;1269;26114;-51
2023/02/04 07:51:33;;;;;;;4.70;3.20;;;;;;;7.21;61.70;101180.61;106230;1269;1002585;-50
2023/02/04 07:54:01;;;;;;;5.90;2.80;;;;;;;7.19;61.85;101179.58;107086;1269;25520;-50
2023/02/04 07:56:28;;;;;;;3.90;3.00;;;;;;;7.20;62.07;101180.60;106432;1269;1003087;-50
2023/02/04 07:58:55;;;;;;;3.00;2.70;;;;;;;7.23;61.98;101183.70;107097;1267;25475;-50
2023/02/04 08:01:22;;;;;;;3.30;2.70;;;;;;;7.25;61.80;101182.66;107069;1269;22528;-50
2023/02/04 08:03:50;;;;;;;4.70;2.80;;;;;;;7.25;61.73;101183.34;106978;1272;25430;-50
2023/02/04 08:06:17;;;;;;;4.50;3.10;;;;;;;7.25;61.90;101185.42;107088;1268;24240;-50
2023/02/04 08:08:44;;;;;;;6.70;3.20;;;;;;;7.24;61.93;101185.95;107129;1267;24365;-50
2023/02/04 08:11:12;;;;;;;4.10;2.90;;;;;;;7.26;62.08;101183.18;107050;1267;25383;-50
2023/02/04 08:13:39;;;;;;;5.30;3.60;;;;;;;7.28;62.27;101186.81;107035;1267;23187;-50
2023/02/04 08:16:06;;;;;;;6.40;4.00;;;;;;;7.30;62.07;101186.10;106261;1270;1003001;-50
2023/02/04 08:18:33;;;;;;;5.30;3.30;;;;;;;7.32;62.44;101191.97;107106;1269;25354;-49
2023/02/04 08:21:01;;;;;;;6.20;3.90;;;;;;;7.35;62.68;101191.80;106971;1269;22527;-50
2023/02/04 08:23:29;;;;;;;7.60;5.00;;;;;;;7.39;62.63;101194.20;107155;1267;25347;-50
2023/02/04 08:25:56;;;;;;;10.30;6.20;;;;;;;7.42;62.62;101196.09;106804;1267;23062;-50
2023/02/04 08:28:23;;;;;;;9.70;6.30;;;;;;;7.45;62.46;101199.55;107090;1273;25300;-50
2023/02/04 08:30:50;;;;;;;9.00;5.10;;;;;;;7.47;62.49;101199.54;107118;1268;25479;-50
2023/02/04 08:33:18;;;;;;;8.20;4.70;;;;;;;7.48;62.48;101202.29;107179;1269;25422;-50
2023/02/04 08:35:45;;;;;;;5.30;3.90;;;;;;;7.46;62.43;101206.08;107115;1269;24298;-50
2023/02/04 08:38:13;;;;;;;5.50;3.90;;;;;;;7.47;62.44;101204.89;106918;1269;25318;-49
2023/02/04 08:40:40;;;;;;;4.90;3.70;;;;;;;7.49;62.61;101202.11;106865;1271;25444;-51
2023/02/04 08:43:08;;;;;;;5.30;4.50;;;;;;;7.52;62.40;101198.66;107102;1269;25319;-52
2023/02/04 08:45:35;;;;;;;6.50;4.30;;;;;;;7.54;62.47;101194.01;106035;1267;1003297;-50
2023/02/04 08:48:02;;;;;;;7.10;4.80;;;;;;;7.56;62.32;101194.34;107104;1267;22552;-52
2023/02/04 08:50:29;;;;;;;5.80;3.80;;;;;;;7.59;62.50;101195.02;107082;1271;26774;-49
2023/02/04 08:52:57;;;;;;;6.70;3.70;;;;;;;7.62;62.58;101195.19;107124;1267;25354;-50
2023/02/04 08:55:24;;;;;;;4.20;3.50;;;;;;;7.65;62.32;101200.52;106896;1272;23874;-49
2023/02/04 08:57:51;;;;;;;6.00;4.10;;;;;;;7.68;62.37;101197.41;106576;1274;24260;-51
2023/02/04 09:00:19;;;;;;;7.00;4.10;;;;;;;7.71;62.46;101193.26;106840;1269;25465;-51
2023/02/04 09:02:46;;;;;;;4.40;3.60;;;;;;;7.75;62.17;101188.92;106619;1269;217697;-51
2023/02/04 09:05:13;;;;;;;5.70;3.80;;;;;;;7.75;61.95;101191.86;106934;1274;25319;-51
2023/02/04 09:07:42;;;;;;;5.70;3.40;;;;;;;7.74;61.78;101196.18;107068;1273;25337;-51
2023/02/04 09:10:09;;;;;;;4.60;3.00;;;;;;;7.75;62.01;101193.59;106817;1273;25427;-51
2023/02/04 09:12:37;;;;;;;4.70;3.80;;;;;;;7.80;62.26;101186.84;107128;1268;25315;-50
2023/02/04 09:15:04;;;;;;;5.80;3.50;;;;;;;7.77;62.45;101192.37;107013;1269;25360;-51
2023/02/04 09:17:33;;;;;;;5.10;4.00;;;;;;;7.76;62.25;101192.55;106319;1272;1003216;-51
2023/02/04 09:20:00;;;;;;;6.70;4.60;;;;;;;7.71;62.45;101186.70;106858;1269;25378;-50
2023/02/04 09:22:27;;;;;;;4.50;3.90;;;;;;;7.60;62.84;101187.08;107130;1271;25411;-51
2023/02/04 09:24:55;;;;;;;8.90;5.70;;;;;;;7.45;63.51;101183.48;107055;1270;25347;-50
2023/02/04 09:27:22;;;;;;;5.60;4.90;;;;;;;7.46;63.63;101186.07;107117;1271;25394;-50
2023/02/04 09:29:49;;;;;;;8.20;5.70;;;;;;;7.35;63.65;101187.13;106807;1274;25410;-49
2023/02/04 09:32:16;;;;;;;7.70;5.00;;;;;;;7.24;63.62;101186.98;106924;1270;24109;-51
2023/02/04 09:34:43;;;;;;;5.70;4.80;;;;;;;7.10;63.91;101194.24;106979;1271;25324;-51
2023/02/04 09:37:11;;;;;;;7.00;4.80;;;;;;;6.98;64.21;101186.30;106818;1266;25405;-48
2023/02/04 09:39:38;;;;;;;8.90;6.80;;;;;;;6.92;64.41;101179.93;106820;1274;25374;-51
2023/02/04 09:42:06;;;;;;;6.40;4.90;;;;;;;6.87;64.48;101179.06;106720;1270;25490;-51
2023/02/04 09:44:33;;;;;;;6.80;5.10;;;;;;;6.80;64.74;101183.03;106644;1267;25344;-52
2023/02/04 09:47:00;;;;;;;9.20;6.90;;;;;;;6.74;65.16;101173.38;106911;1268;22639;-51
2023/02/04 09:49:27;;;;;;;6.70;5.80;;;;;;;6.73;65.40;101169.93;106015;1274;1002884;-50
2023/02/04 09:51:54;;;;;;;9.30;5.20;;;;;;;6.76;65.65;101168.02;106877;1269;22526;-50
2023/02/04 09:57:42;;;;;;;5.90;5.30;;;;;;;6.83;66.36;101174.23;103701;1300;545727;-50
2023/02/04 10:00:15;;;;;;;10.10;5.80;;;;;;;6.84;66.27;101167.52;105573;1289;25415;-50
2023/02/04 10:02:44;;;;;;;7.70;5.70;;;;;;;6.87;66.26;101167.34;105863;1284;22556;-50
2023/02/04 10:05:18;;;;;;;8.70;6.00;;;;;;;6.90;66.42;101168.20;105003;1284;1003574;-51
2023/02/04 10:07:56;;;;;;;5.90;4.80;;;;;;;6.93;66.37;101183.38;105186;1282;1002896;-50
2023/02/04 10:10:26;;;;;;;8.10;5.90;;;;;;;6.92;66.07;101170.96;106642;1273;137111;-50
2023/02/04 10:12:56;;;;;;;6.00;4.80;;;;;;;6.89;65.91;101175.45;106963;1271;22774;-51
2023/02/04 10:15:24;;;;;;;6.10;4.80;;;;;;;6.86;66.16;101173.55;106803;1272;25387;-48
2023/02/04 10:17:55;;;;;;;7.40;5.80;;;;;;;6.85;66.03;101164.59;106842;1269;25350;-50
2023/02/04 10:20:24;;;;;;;10.40;7.30;;;;;;;6.86;66.09;101165.63;106788;1274;25390;-49
2023/02/04 10:22:53;;;;;;;7.40;5.90;;;;;;;6.84;66.20;101171.13;106153;1272;1003104;-49
2023/02/04 10:25:23;;;;;;;7.50;5.20;;;;;;;6.82;66.34;101174.23;107004;1268;25329;-49
2023/02/04 10:27:54;;;;;;;7.50;5.10;;;;;;;6.81;66.54;101183.20;106954;1269;22778;-49
2023/02/04 10:30:24;;;;;;;6.00;4.80;;;;;;;6.79;66.56;101186.66;106887;1271;24316;-49
2023/02/04 10:32:52;;;;;;;10.60;5.80;;;;;;;6.75;66.72;101189.58;106142;1270;1002821;-50
2023/02/04 10:35:21;;;;;;;6.90;5.50;;;;;;;6.71;66.54;101184.75;106819;1273;24282;-51
2023/02/04 10:38:02;;;;;;;7.30;5.60;;;;;;;6.67;66.62;101172.52;106884;1269;22628;-49
2023/02/04 10:40:31;;;;;;;9.10;5.70;;;;;;;6.69;66.79;101171.48;106845;1272;25351;-50
2023/02/04 10:43:14;;;;;;;8.10;5.30;;;;;;;6.73;67.02;101173.73;106883;1273;23962;-50
2023/02/04 10:45:46;;;;;;;7.50;5.40;;;;;;;6.74;66.97;101178.73;106968;1268;25262;-49
2023/02/04 10:48:16;;;;;;;10.30;6.80;;;;;;;6.71;66.71;101177.00;106754;1269;22517;-50
2023/02/04 10:50:45;;;;;;;8.10;5.50;;;;;;;6.67;67.05;101169.41;106962;1269;22689;-50
2023/02/04 10:56:14;;;;;;;7.50;5.50;;;;;;;6.63;66.97;101180.27;106892;1269;25329;-50
2023/02/04 10:58:43;;;;;;;8.10;6.10;;;;;;;6.58;67.09;101179.91;106098;1269;1003039;-51
2023/02/04 11:01:13;;;;;;;9.00;5.70;;;;;;;6.53;67.01;101175.60;106375;1275;22511;-50
2023/02/04 11:03:41;;;;;;;5.80;4.50;;;;;;;6.49;67.18;101181.27;105506;1269;1002495;-50
2023/02/04 11:06:13;;;;;;;7.70;5.20;;;;;;;6.48;67.46;101178.86;106823;1270;26490;-50
2023/02/04 11:08:41;;;;;;;7.50;5.40;;;;;;;6.50;67.71;101178.70;106770;1271;25282;-50
2023/02/04 11:11:21;;;;;;;5.90;4.90;;;;;;;6.54;67.90;101171.63;106832;1268;25551;-50
2023/02/04 11:13:49;;;;;;;9.40;4.80;;;;;;;6.58;67.89;101178.54;106903;1269;22536;-51
2023/02/04 11:16:26;;;;;;;7.10;4.70;;;;;;;6.59;67.67;101181.46;106729;1274;25318;-51
2023/02/04 11:19:05;;;;;;;5.50;4.80;;;;;;;6.57;67.48;101183.52;106643;1268;25361;-50
2023/02/04 11:21:33;;;;;;;5.90;4.30;;;;;;;6.56;67.62;101179.73;106677;1269;22533;-50
2023/02/04 11:24:23;;;;;;;8.50;5.00;;;;;;;6.54;67.63;101173.87;106729;1270;25549;-50
2023/02/04 11:27:04;;;;;;;9.20;4.50;;;;;;;6.55;67.82;101168.19;106364;1268;25364;-49
2023/02/04 11:29:36;;;;;;;8.40;4.70;;;;;;;6.57;67.69;101168.02;106332;1283;22535;-50